createdAt,value
2018-12-18T00:02:01.683Z,5.60
2018-12-18T00:04:30.308Z,5.50
2018-12-18T00:06:58.869Z,5.50
2018-12-18T00:09:27.405Z,5.50
2018-12-18T00:11:59.288Z,5.40
2018-12-18T00:14:26.505Z,5.40
2018-12-18T00:16:55.032Z,5.40
2018-12-18T00:19:23.584Z,5.40
2018-12-18T00:21:52.234Z,5.40
2018-12-18T00:24:21.363Z,5.40
2018-12-18T00:26:49.910Z,5.40
2018-12-18T00:29:18.467Z,5.40
2018-12-18T00:31:47.132Z,5.50
2018-12-18T00:34:15.655Z,5.40
2018-12-18T00:36:44.169Z,5.40
2018-12-18T00:39:14.633Z,5.40
2018-12-18T00:41:43.760Z,5.50
2018-12-18T00:44:12.392Z,5.50
2018-12-18T00:46:40.959Z,5.50
2018-12-18T00:49:10.784Z,5.50
2018-12-18T00:51:40.024Z,5.50
2018-12-18T00:54:08.585Z,5.50
2018-12-18T00:56:37.146Z,5.40
2018-12-18T00:59:05.680Z,5.40
2018-12-18T01:01:34.238Z,5.40
2018-12-18T01:04:02.770Z,5.40
2018-12-18T01:06:32.233Z,5.40
2018-12-18T01:09:00.954Z,5.40
2018-12-18T01:11:29.477Z,5.40
2018-12-18T01:13:58.039Z,5.40
2018-12-18T01:16:26.578Z,5.40
2018-12-18T01:18:55.141Z,5.40
2018-12-18T01:21:24.111Z,5.40
2018-12-18T01:23:52.710Z,5.50
2018-12-18T01:26:27.662Z,5.50
2018-12-18T01:28:56.167Z,5.40
2018-12-18T01:31:24.696Z,5.50
2018-12-18T01:33:59.154Z,5.50
2018-12-18T01:36:23.818Z,5.50
2018-12-18T01:38:52.326Z,5.50
2018-12-18T01:41:21.029Z,5.50
2018-12-18T01:43:49.547Z,5.50
2018-12-18T01:46:18.081Z,5.50
2018-12-18T01:48:46.813Z,5.60
2018-12-18T01:51:15.499Z,5.50
2018-12-18T01:53:44.167Z,5.50
2018-12-18T01:56:12.745Z,5.50
2018-12-18T01:58:41.269Z,5.60
2018-12-18T02:01:09.923Z,5.60
2018-12-18T02:03:38.422Z,5.60
2018-12-18T02:06:07.213Z,5.60
2018-12-18T02:08:35.744Z,5.60
2018-12-18T02:11:04.398Z,5.60
2018-12-18T02:13:33.048Z,5.60
2018-12-18T02:16:01.566Z,5.60
2018-12-18T02:18:30.291Z,5.60
2018-12-18T02:20:58.914Z,5.60
2018-12-18T02:23:27.503Z,5.70
2018-12-18T02:25:56.016Z,5.70
2018-12-18T02:28:24.547Z,5.70
2018-12-18T02:30:53.087Z,5.60
2018-12-18T02:33:22.076Z,5.70
2018-12-18T02:35:50.610Z,5.70
2018-12-18T02:38:19.187Z,5.60
2018-12-18T02:40:47.725Z,5.60
2018-12-18T02:43:16.459Z,5.70
2018-12-18T02:45:45.025Z,5.60
2018-12-18T02:48:13.529Z,5.60
2018-12-18T02:50:42.040Z,5.70
2018-12-18T02:53:10.884Z,5.70
2018-12-18T02:55:39.452Z,5.70
2018-12-18T02:58:07.971Z,5.70
2018-12-18T03:00:36.515Z,5.70
2018-12-18T03:03:05.066Z,5.70
2018-12-18T03:05:34.259Z,5.70
2018-12-18T03:08:02.805Z,5.60
2018-12-18T03:10:31.475Z,5.70
2018-12-18T03:12:59.998Z,5.70
2018-12-18T03:15:28.515Z,5.70
2018-12-18T03:17:57.069Z,5.70
2018-12-18T03:20:25.596Z,5.70
2018-12-18T03:22:54.158Z,5.60
2018-12-18T03:25:22.809Z,5.60
2018-12-18T03:27:51.338Z,5.70
2018-12-18T03:30:19.858Z,5.60
2018-12-18T03:32:51.965Z,5.70
2018-12-18T03:35:21.319Z,5.70
2018-12-18T03:37:49.868Z,5.70
2018-12-18T03:40:18.474Z,5.60
2018-12-18T03:42:47.138Z,5.60
2018-12-18T03:45:15.659Z,5.60
2018-12-18T03:47:44.198Z,5.60
2018-12-18T03:50:12.840Z,5.60
2018-12-18T03:52:41.384Z,5.60
2018-12-18T03:55:09.900Z,5.60
2018-12-18T03:57:38.621Z,5.60
2018-12-18T04:00:09.703Z,5.60
2018-12-18T04:02:38.241Z,5.60
2018-12-18T04:05:07.040Z,5.60
2018-12-18T04:07:36.694Z,5.60
2018-12-18T04:10:07.158Z,5.60
2018-12-18T04:12:35.818Z,5.60
2018-12-18T04:15:05.311Z,5.60
2018-12-18T04:17:33.844Z,5.60
2018-12-18T04:20:02.560Z,5.60
2018-12-18T04:22:31.115Z,5.60
2018-12-18T04:24:59.802Z,5.60
2018-12-18T04:27:28.359Z,5.60
2018-12-18T04:29:56.913Z,5.60
2018-12-18T04:32:25.539Z,5.60
2018-12-18T04:34:54.041Z,5.60
2018-12-18T04:37:22.598Z,5.60
2018-12-18T04:39:51.110Z,5.70
2018-12-18T04:42:19.649Z,5.60
2018-12-18T04:44:48.190Z,5.60
2018-12-18T04:47:16.727Z,5.70
2018-12-18T04:49:45.246Z,5.70
2018-12-18T04:52:13.858Z,5.70
2018-12-18T04:54:42.435Z,5.70
2018-12-18T04:57:10.967Z,5.70
2018-12-18T04:59:39.503Z,5.70
2018-12-18T05:02:08.182Z,5.70
2018-12-18T05:04:36.719Z,5.70
2018-12-18T05:07:05.232Z,5.70
2018-12-18T05:09:33.782Z,5.70
2018-12-18T05:12:02.330Z,5.70
2018-12-18T05:14:30.906Z,5.70
2018-12-18T05:16:59.786Z,5.70
2018-12-18T05:19:28.781Z,5.70
2018-12-18T05:21:57.346Z,5.70
2018-12-18T05:24:25.955Z,5.70
2018-12-18T05:26:54.474Z,5.70
2018-12-18T05:29:23.000Z,5.70
2018-12-18T05:31:51.580Z,5.70
2018-12-18T05:34:20.161Z,5.80
2018-12-18T05:36:48.693Z,5.70
2018-12-18T05:39:17.261Z,5.80
2018-12-18T05:41:46.177Z,5.80
2018-12-18T05:44:14.859Z,5.80
2018-12-18T05:46:43.421Z,5.80
2018-12-18T05:49:12.061Z,5.80
2018-12-18T05:51:41.158Z,5.80
2018-12-18T05:54:09.688Z,5.80
2018-12-18T05:56:38.231Z,5.80
2018-12-18T05:59:06.911Z,5.80
2018-12-18T06:01:35.466Z,5.80
2018-12-18T06:04:04.368Z,5.80
2018-12-18T06:06:32.916Z,5.80
2018-12-18T06:09:01.467Z,5.80
2018-12-18T06:11:30.135Z,5.80
2018-12-18T06:13:58.712Z,5.80
2018-12-18T06:16:27.295Z,5.80
2018-12-18T06:18:55.801Z,5.80
2018-12-18T06:21:24.437Z,5.80
2018-12-18T06:23:53.028Z,5.80
2018-12-18T06:26:21.598Z,5.80
2018-12-18T06:28:50.161Z,5.80
2018-12-18T06:31:18.725Z,5.80
2018-12-18T06:33:47.262Z,5.80
2018-12-18T06:36:16.369Z,5.80
2018-12-18T06:38:45.834Z,5.80
2018-12-18T06:41:14.394Z,5.80
2018-12-18T06:43:42.942Z,5.80
2018-12-18T06:46:11.502Z,5.80
2018-12-18T06:48:40.051Z,5.90
2018-12-18T06:51:08.668Z,5.80
2018-12-18T06:53:37.229Z,5.90
2018-12-18T06:56:12.303Z,5.90
2018-12-18T06:58:40.863Z,5.90
2018-12-18T07:01:09.361Z,5.90
2018-12-18T07:03:37.865Z,5.90
2018-12-18T07:06:06.379Z,5.90
2018-12-18T07:08:34.925Z,5.90
2018-12-18T07:11:04.471Z,5.90
2018-12-18T07:13:33.204Z,5.80
2018-12-18T07:16:01.770Z,5.80
2018-12-18T07:18:30.311Z,5.80
2018-12-18T07:20:58.847Z,5.80
2018-12-18T07:23:27.365Z,5.80
2018-12-18T07:25:55.896Z,5.80
2018-12-18T07:28:24.413Z,5.80
2018-12-18T07:30:53.118Z,5.80
2018-12-18T07:33:21.658Z,5.80
2018-12-18T07:35:50.261Z,5.80
2018-12-18T07:38:18.775Z,5.80
2018-12-18T07:40:47.516Z,5.80
2018-12-18T07:43:16.999Z,5.80
2018-12-18T07:45:45.623Z,5.80
2018-12-18T07:48:14.163Z,5.80
2018-12-18T07:50:42.676Z,5.80
2018-12-18T07:53:12.303Z,5.80
2018-12-18T07:55:40.818Z,5.80
2018-12-18T07:58:09.362Z,5.80
2018-12-18T08:00:37.935Z,5.80
2018-12-18T08:03:06.882Z,5.80
2018-12-18T08:05:35.466Z,5.80
2018-12-18T08:08:04.052Z,5.80
2018-12-18T08:10:32.672Z,5.80
2018-12-18T08:13:01.468Z,5.80
2018-12-18T08:15:30.253Z,5.80
2018-12-18T08:17:58.778Z,5.80
2018-12-18T08:20:27.309Z,5.80
2018-12-18T08:22:55.899Z,5.80
2018-12-18T08:25:25.293Z,5.80
2018-12-18T08:27:53.805Z,5.80
2018-12-18T08:30:22.334Z,5.80
2018-12-18T08:32:51.980Z,5.80
2018-12-18T08:35:20.543Z,5.80
2018-12-18T08:37:49.054Z,5.80
2018-12-18T08:40:17.607Z,5.80
2018-12-18T08:42:46.113Z,5.80
2018-12-18T08:45:14.671Z,5.80
2018-12-18T08:47:43.229Z,5.90
2018-12-18T08:50:11.729Z,5.80
2018-12-18T08:52:40.287Z,5.80
2018-12-18T08:55:08.841Z,5.80
2018-12-18T08:57:37.363Z,5.80
2018-12-18T09:00:07.667Z,5.80
2018-12-18T09:02:36.199Z,5.80
2018-12-18T09:05:05.590Z,5.90
2018-12-18T09:07:34.132Z,5.80
2018-12-18T09:10:02.730Z,5.90
2018-12-18T09:12:31.322Z,5.90
2018-12-18T09:15:02.048Z,5.80
2018-12-18T09:17:35.855Z,5.80
2018-12-18T09:20:04.725Z,5.80
2018-12-18T09:22:33.352Z,5.80
2018-12-18T09:25:02.043Z,5.80
2018-12-18T09:27:30.622Z,5.80
2018-12-18T09:29:59.230Z,5.90
2018-12-18T09:32:27.912Z,5.90
2018-12-18T09:34:56.677Z,5.90
2018-12-18T09:37:25.404Z,5.90
2018-12-18T09:39:53.996Z,5.90
2018-12-18T09:43:30.215Z,5.90
2018-12-18T09:45:58.811Z,5.80
2018-12-18T09:48:27.345Z,5.90
2018-12-18T09:50:55.930Z,5.80
2018-12-18T09:53:24.483Z,5.80
2018-12-18T09:55:53.008Z,5.80
2018-12-18T09:58:22.151Z,5.80
2018-12-18T10:00:50.822Z,5.80
2018-12-18T10:03:19.349Z,5.80
2018-12-18T10:05:48.036Z,5.70
2018-12-18T10:08:16.749Z,5.70
2018-12-18T10:10:51.751Z,5.70
2018-12-18T10:13:21.046Z,5.70
2018-12-18T10:15:49.658Z,5.70
2018-12-18T10:18:18.162Z,5.70
2018-12-18T10:20:46.725Z,5.70
2018-12-18T10:23:15.384Z,5.70
2018-12-18T10:25:43.914Z,5.70
2018-12-18T10:28:12.956Z,5.80
2018-12-18T10:30:41.534Z,5.70
2018-12-18T10:33:10.905Z,5.80
2018-12-18T10:35:39.449Z,5.80
2018-12-18T10:38:07.961Z,5.80
2018-12-18T10:40:36.822Z,5.80
2018-12-18T10:43:05.417Z,5.80
2018-12-18T10:45:35.132Z,5.80
2018-12-18T10:48:04.185Z,5.90
2018-12-18T10:50:32.733Z,5.90
2018-12-18T10:53:01.376Z,5.90
2018-12-18T10:55:29.880Z,5.90
2018-12-18T10:57:58.400Z,5.90
2018-12-18T11:00:32.314Z,6.00
2018-12-18T11:03:00.957Z,5.90
2018-12-18T11:05:30.541Z,6.00
2018-12-18T11:07:59.446Z,6.00
2018-12-18T11:10:28.111Z,6.00
2018-12-18T11:13:02.222Z,5.90
2018-12-18T11:15:30.753Z,6.00
2018-12-18T11:17:59.617Z,6.00
2018-12-18T11:20:28.295Z,6.00
2018-12-18T11:22:56.803Z,6.00
2018-12-18T11:25:25.398Z,6.00
2018-12-18T11:27:53.925Z,6.00
2018-12-18T11:30:22.644Z,6.00
2018-12-18T11:32:51.219Z,6.00
2018-12-18T11:35:19.815Z,6.10
2018-12-18T11:37:48.355Z,6.10
2018-12-18T11:40:17.047Z,6.10
2018-12-18T11:42:45.593Z,6.10
2018-12-18T11:45:14.230Z,6.10
2018-12-18T11:47:42.780Z,6.10
2018-12-18T11:50:11.416Z,6.20
2018-12-18T11:52:40.248Z,6.20
2018-12-18T11:55:08.981Z,6.20
2018-12-18T11:57:37.560Z,6.30
2018-12-18T12:00:09.746Z,6.30
2018-12-18T12:02:42.794Z,6.40
2018-12-18T12:05:08.932Z,6.40
2018-12-18T12:07:38.202Z,6.40
2018-12-18T12:10:07.427Z,6.40
2018-12-18T12:12:36.211Z,6.50
2018-12-18T12:15:05.542Z,6.50
2018-12-18T12:17:34.393Z,6.50
2018-12-18T12:20:02.998Z,6.50
2018-12-18T12:22:31.533Z,6.60
2018-12-18T12:25:00.103Z,6.60
2018-12-18T12:27:36.499Z,6.60
2018-12-18T12:30:06.521Z,6.60
2018-12-18T12:32:35.077Z,6.70
2018-12-18T12:35:03.751Z,6.70
2018-12-18T12:37:32.356Z,6.70
2018-12-18T12:40:00.917Z,6.80
2018-12-18T12:42:29.441Z,6.80
2018-12-18T12:44:58.018Z,7.00
2018-12-18T12:47:26.605Z,7.00
2018-12-18T12:49:55.217Z,7.10
2018-12-18T12:52:23.952Z,7.10
2018-12-18T12:54:52.616Z,7.20
2018-12-18T12:57:21.183Z,7.20
2018-12-18T12:59:49.700Z,7.20
2018-12-18T13:02:18.381Z,7.20
2018-12-18T13:04:46.920Z,7.20
2018-12-18T13:07:15.461Z,7.20
2018-12-18T13:09:44.030Z,7.20
2018-12-18T13:12:12.761Z,7.20
2018-12-18T13:14:42.187Z,7.20
2018-12-18T13:17:10.851Z,7.20
2018-12-18T13:19:39.711Z,7.20
2018-12-18T13:22:08.251Z,7.30
2018-12-18T13:24:36.857Z,7.30
2018-12-18T13:27:05.424Z,7.40
2018-12-18T13:29:34.272Z,7.40
2018-12-18T13:32:03.256Z,7.40
2018-12-18T13:34:33.775Z,7.40
2018-12-18T13:37:02.315Z,7.50
2018-12-18T13:39:30.912Z,7.50
2018-12-18T13:41:59.463Z,7.50
2018-12-18T13:44:28.778Z,7.60
2018-12-18T13:46:57.490Z,7.60
2018-12-18T13:49:26.216Z,7.60
2018-12-18T13:51:54.903Z,7.70
2018-12-18T13:54:23.463Z,7.70
2018-12-18T13:56:51.962Z,7.70
2018-12-18T13:59:20.517Z,7.70
2018-12-18T14:01:49.026Z,7.60
2018-12-18T14:04:17.683Z,7.60
2018-12-18T14:06:49.687Z,7.60
2018-12-18T14:09:16.777Z,7.60
2018-12-18T14:11:45.391Z,7.60
2018-12-18T14:14:13.996Z,7.60
2018-12-18T14:16:43.266Z,7.50
2018-12-18T14:19:11.785Z,7.50
2018-12-18T14:21:40.679Z,7.50
